Dryden, Ontario

10:38 AM CDT on October 30, 2014 (GMT -0500)
Dryden Regional | Change Station
CLOSE
Current Station
Airport
Location: Dryden,
Elevation: 1352 ft
Nearby Weather Stations

Elev 1352 ft 49.83 °N, 92.74 °W | Updated 59 seconds ago

Light Snow
Light Snow Rain
32 °F
Feels Like 24 °F
N
10
Wind Variable Wind from North

Today is forecast to be nearly the same temperature as yesterday.

Today
High -- | Low -- °F
--% Chance of Precip.
Yesterday
High -- | Low -- °F
Precip. -- in
7:57 AM 5:51 PM
Waxing Crescent, 45% visible
Pressure 30.15 in
Visibility 4.0 miles
Clouds Overcast 1300 ft
Windchill 24 °F
Dew Point 30 °F
Humidity 93%
Rainfall 0.00 in
Snow Depth Not available.
UV 0 out of 12
Pollen Not available.
Air Quality Not available.
Flu Activity Not available.
SPECI CYHD 301538Z AUTO 36009KT 320V040 4SM -SNRA OVC013 M00/M01 A3008 RMK SLP208

More Conditions Fewer Conditions

Pressure 30.15 in
Visibility 4.0 miles
Clouds Overcast 1300 ft
Windchill 24 °F
Dew Point 30 °F
Humidity 93%
Rainfall 0.00 in
Snow Depth Not available.
UV 0 out of 12
Pollen Not available.
Air Quality Not available.
Flu Activity Not available.
SPECI CYHD 301538Z AUTO 36009KT 320V040 4SM -SNRA OVC013 M00/M01 A3008 RMK SLP208

More Conditions Fewer Conditions

Nowcast |

Seine River Village - Mine Centre . Atikokan - Upsala - Quetico Kakabeka Falls - Whitefish Lake - Arrow Lake.

×

10-Day Weather Forecast

Almanac

Astronomy

Oct. 30, 2014 Rise Set
Actual Time
Civil Twilight
Nautical Twilight
Astronomical Twilight
Moon
Length of Visible Light
Length of Day
Tomorrow will be .
, % of the Moon is Illuminated

Today's Extremes

Country Highs Country Lows

Community

WunderPhotos

Upload Photos

1,766,387 photos uploaded!

WunderBlogs® & News

Nearby

Air Quality

  Air Quality AQ Index Pollutant
Not available.

Snow Depth

Station Depth Elevation

Earthquake Activity

City Distance Mag. Time & Date
Minimum magnitude displayed is 2.5.

Coastal Water Temperatures

Place Temperature

Nearby Weather Stations